Flight Track Log - Related Links

Times and Time Zones

All times are in EDT time to prevent confusion due to time zone crossing. See the LBQ652 flight status page for this flight to view local times or setup timezone preferences in your user account.

Time Position Orientation Groundspeed Altitude Reporting Facility
EDT Latitude Longitude Course Direction KTS MPH feet Rate Location/Type
Wed 02:42:25 AM 42.6000 -83.9061 251° West 272 313 12,500  Level Chicago Center
Wed 02:43:21 AM 42.5822 -84.0125 257° West 368 423 13,900 1,655 Climbing Cleveland Center
Wed 02:44:21 AM 42.5664 -84.1186 259° West 325 374 15,700 1,750 Climbing Cleveland Center
Wed 02:45:21 AM 42.5525 -84.2278 260° West 307 353 17,400 1,646 Climbing Cleveland Center
Wed 02:46:14 AM 42.5408 -84.3314 261° West 309 356 18,800 1,540 Climbing Cleveland Center
Wed 02:47:00 AM 42.4968 -84.5463 251° West  Level FlightAware
Wed 02:47:14 AM 42.5244 -84.4489 259° West 321 369 20,300  Level Cleveland Center
Wed 02:48:15 AM 42.5036 -84.5717 257° West 321 369 21,900 1,339 Climbing Cleveland Center
Wed 02:49:15 AM 42.4892 -84.6861 260° West 327 376 23,000 1,145 Climbing Cleveland Center
Wed 02:50:26 AM 42.4678 -84.8286 259° West 336 387 24,400 1,237 Climbing Chicago Center
Wed 02:51:26 AM 42.4492 -84.9528 259° West 337 388 25,700 1,289 Climbing Chicago Center
Wed 02:52:27 AM 42.4300 -85.0767 258° West 337 388 27,000 1,140 Climbing Chicago Center
Wed 02:53:27 AM 42.4119 -85.2006 259° West 336 387 28,000 500 Climbing Chicago Center
Wed 02:54:27 AM 42.3919 -85.3336 259° West 350 403 28,000  Level Chicago Center
Wed 02:55:27 AM 42.3706 -85.4742 258° West 371 427 28,000  Level Chicago Center
Wed 02:56:27 AM 42.3481 -85.6156 258° West 381 438 28,000  Level Chicago Center
Wed 02:57:27 AM 42.3258 -85.7575 258° West 385 443 28,000  Level Chicago Center
Wed 02:58:27 AM 42.3028 -85.9019 258° West 391 450 28,000  Level Chicago Center
Wed 02:59:27 AM 42.2842 -86.0281 259° West 388 447 28,000  Level Chicago Center
Wed 03:00:27 AM 42.2600 -86.1686 257° West 388 447 28,000  Level Chicago Center
Wed 03:01:28 AM 42.2375 -86.3097 258° West 388 447 28,000 -149 Level Chicago Center
Wed 03:02:28 AM 42.2144 -86.4506 258° West 387 445 27,700 -1,200 Descending Chicago Center
Wed 03:03:28 AM 42.1908 -86.5936 257° West 391 450 25,600 -2,100 Descending Chicago Center
Wed 03:04:28 AM 42.1692 -86.7408 259° West 366 421 23,500 -2,000 Descending Chicago Center
Wed 03:05:28 AM 42.1472 -86.8683 257° West 353 406 21,600 -1,850 Descending Chicago Center
Wed 03:06:28 AM 42.1269 -86.9958 258° West 351 404 19,800 -1,850 Descending Chicago Center
Wed 03:07:28 AM 42.1033 -87.1206 256° West 346 398 17,900 -1,800 Descending Chicago Center
Wed 03:08:28 AM 42.0831 -87.2442 258° West 342 394 16,200 -1,736 Descending Chicago Center
Wed 03:09:29 AM 42.0622 -87.3639 257° West 334 384 14,400 -1,736 Descending Chicago Center
Wed 03:10:29 AM 42.0419 -87.4814 257° West 328 377 12,700 -1,839 Descending Chicago Center
Wed 03:11:33 AM 42.0167 -87.6333 257° West 320 368 10,600 -1,839 Descending Chicago TRACON
Wed 03:12:33 AM 42.0000 -87.7333 257° West 308 354 8,900 -1,636 Descending Chicago TRACON
Wed 03:13:34 AM 41.9833 -87.8500 259° West 304 350 7,300 -1,537 Descending Chicago TRACON
Wed 03:14:34 AM 41.9667 -87.9500 257° West 358 412 5,800 -1,550 Descending Chicago TRACON
Wed 03:15:34 AM 41.9500 -88.0667 259° West 279 321 4,200 -1,409 Descending Chicago TRACON
Wed 03:16:29 AM 41.9461 -88.1528 267° West 277 319 3,100 -983 Descending Chicago Center
Wed 03:17:30 AM 41.9581 -88.2167 284° West 214 246 2,300 -942 Descending Chicago Center
Wed 03:18:30 AM 41.9319 -88.2417 215° Southwest 158 182 1,200 -750 Descending Chicago Center
Wed 03:19:30 AM 41.9100 -88.2486 193° South 130 150 800 -400 Descending Chicago Center

Login

Don't have an account? Register now (free) for customized features, flight alerts, and more!